aviador You're here:

LZKZ Decoded Metar

KOSICE in SLOVAKIA
Report Time2018-01-16 21:00:00
UTC Time2018-01-16 21:15:38
Flight Rules ifr IFR
Wind220° at 04 kt
W.Decomp.*RWY 19: 3.6 kt HW 1.7 kt RCW
W.Rank220° ranks 13
Current wind is below 220° avg. (5.9)
Visibility1600 m
Phenomena:Light Snow
Clouds:Overcast 005 Hf
Expected CloudBase > 400 ft AGL from Temp-Dew spread
Ceiling500 ft
Temp-4°C (ISA -17)
Dew Point-5°C (93% RH)
AAT-8.0°C
QNH0999 hPa
Density Alt-850 ft
Elevation761 ft
Report Wrong Elevation
Raw Report
LZKZ 162100Z 22004KT 3500 1600S -SN OVC005 M04/M05 Q0999 RESN=

Extra information for LZKZ:More info

Metar Taf Metar & Taf Last 4 Metars F.Rules Stats Wind Profile Meteogram Temp Stats Airport Information Weather charts Add Link Nearby VenuesMetar ALERT Operation Metar Decoded Social comments